createdAt,value
2022-12-31T00:24:33.397Z,12.5
2022-12-31T00:54:50.662Z,12.75
2022-12-31T01:25:10.287Z,13.05
2022-12-31T01:55:27.565Z,13.25
2022-12-31T02:25:44.795Z,13.4
2022-12-31T02:56:02.609Z,13.6
2022-12-31T03:26:19.896Z,13.5
2022-12-31T03:56:37.517Z,13.7
2022-12-31T04:26:54.605Z,14
2022-12-31T04:57:12.111Z,14
2022-12-31T05:27:33.450Z,14.5
2022-12-31T05:57:52.016Z,14.45
2022-12-31T06:28:12.187Z,14.65
2022-12-31T06:58:31.577Z,14.9
2022-12-31T07:28:50.454Z,14.75
2022-12-31T07:59:07.486Z,14.55
2022-12-31T08:29:26.990Z,14.7
2022-12-31T08:59:45.614Z,14.8
2022-12-31T09:30:03.150Z,15
2022-12-31T10:00:22.356Z,15.35
2022-12-31T10:30:40.805Z,15.7
2022-12-31T11:00:59.924Z,16.65
2022-12-31T11:31:16.648Z,16.65
2022-12-31T12:01:33.150Z,16.85
2022-12-31T12:31:50.583Z,16.65
2022-12-31T13:02:07.857Z,16.35
2022-12-31T13:32:24.173Z,16.3
2022-12-31T14:33:03.244Z,16.15
2022-12-31T15:03:19.709Z,15.55
2022-12-31T15:33:34.596Z,14.75
2022-12-31T16:03:50.789Z,14.5
2022-12-31T16:34:06.626Z,14.6
2022-12-31T17:04:23.400Z,14.35
2022-12-31T17:34:44.624Z,14.5
2022-12-31T18:05:03.991Z,14.4
2022-12-31T18:35:57.552Z,14.2
2022-12-31T19:05:45.288Z,13.8
2022-12-31T19:36:03.064Z,13.5
2022-12-31T20:06:18.538Z,13.55
2022-12-31T20:36:35.356Z,13.5
2022-12-31T21:06:54.391Z,13.6
2022-12-31T21:37:12.576Z,13.55
2022-12-31T22:07:28.482Z,13.4
2022-12-31T22:37:56.804Z,12.9
2022-12-31T23:08:15.629Z,12.5
2022-12-31T23:38:27.008Z,11.65
